Time;durP1;ratioP1;P1;durP2;ratioP2;P2;SDS_P1;SDS_P2;PMS_P1;PMS_P2;Temp;Humidity;BMP_temperature;BMP_pressure;BME280_temperature;BME280_humidity;BME280_pressure;Samples;Min_cycle;Max_cycle;Signal;HPM_P1;HPM_P2
2022/11/25 00:00:00;;;;;;;1.58;0.75;;;3.00;99.90;;;;;;5080766;28;20658;-80
2022/11/25 00:02:27;;;;;;;3.42;2.72;;;3.00;99.90;;;;;;5089233;28;20527;-80
2022/11/25 00:04:54;;;;;;;6.38;1.50;;;3.30;99.90;;;;;;5087458;28;20195;-80
2022/11/25 00:07:21;;;;;;;1.33;1.02;;;3.00;99.90;;;;;;5084993;28;20194;-80
2022/11/25 00:09:47;;;;;;;0.95;0.95;;;3.00;99.90;;;;;;5070556;28;20203;-80
2022/11/25 00:12:14;;;;;;;0.75;0.60;;;2.90;99.90;;;;;;5087574;28;20211;-80
2022/11/25 00:14:42;;;;;;;1.50;0.85;;;2.90;99.90;;;;;;5085699;28;20198;-80
2022/11/25 00:17:09;;;;;;;3.55;1.20;;;2.90;99.90;;;;;;5077002;28;20205;-81
2022/11/25 00:19:36;;;;;;;2.00;1.90;;;3.10;99.90;;;;;;5070616;28;20199;-81
2022/11/25 00:22:03;;;;;;;1.50;1.13;;;3.00;99.90;;;;;;5077374;28;20225;-80
2022/11/25 00:24:29;;;;;;;1.58;1.48;;;2.90;99.90;;;;;;5088704;28;20262;-81
2022/11/25 00:26:56;;;;;;;2.17;1.98;;;3.00;99.90;;;;;;5086401;28;20708;-80
2022/11/25 00:29:23;;;;;;;1.50;1.42;;;3.00;99.90;;;;;;5081979;28;20324;-80
2022/11/25 00:31:51;;;;;;;2.22;1.77;;;3.00;99.90;;;;;;5074020;28;20222;-81
2022/11/25 00:34:18;;;;;;;1.15;1.15;;;3.00;99.90;;;;;;5082964;28;20190;-80
2022/11/25 00:36:45;;;;;;;1.70;1.10;;;3.00;99.90;;;;;;5084923;28;20274;-80
2022/11/25 00:39:13;;;;;;;3.13;1.88;;;3.00;99.90;;;;;;5070266;28;20191;-81
2022/11/25 00:44:38;;;;;;;1.52;1.30;;;3.10;99.90;;;;;;5083699;28;20202;-80
2022/11/25 00:47:08;;;;;;;0.55;0.45;;;3.10;99.90;;;;;;5069608;28;20195;-81
2022/11/25 00:49:36;;;;;;;0.82;0.82;;;3.20;99.90;;;;;;5076705;28;20194;-81
2022/11/25 00:52:04;;;;;;;1.08;0.98;;;3.20;99.90;;;;;;5081371;28;20230;-81
2022/11/25 00:54:31;;;;;;;1.02;0.80;;;3.20;99.90;;;;;;5085528;28;20564;-81
2022/11/25 00:56:57;;;;;;;0.80;0.80;;;3.20;99.90;;;;;;5069546;28;20194;-81
2022/11/25 00:59:24;;;;;;;0.65;0.65;;;3.20;99.90;;;;;;5076928;28;20239;-81
2022/11/25 01:01:51;;;;;;;1.30;0.95;;;3.20;99.90;;;;;;5075219;28;20200;-81
2022/11/25 01:04:19;;;;;;;1.38;1.27;;;3.30;99.90;;;;;;5089043;28;20787;-81
2022/11/25 01:06:46;;;;;;;0.65;0.65;;;3.30;99.90;;;;;;5080910;28;20216;-81
2022/11/25 01:09:13;;;;;;;0.80;0.80;;;3.40;99.90;;;;;;5088538;28;20206;-81
2022/11/25 01:11:41;;;;;;;0.75;0.75;;;3.50;99.90;;;;;;5085337;28;20970;-81
2022/11/25 01:14:08;;;;;;;3.00;2.40;;;3.50;99.90;;;;;;5076275;28;20200;-80
2022/11/25 01:16:35;;;;;;;1.02;1.02;;;3.60;99.90;;;;;;5070731;28;20579;-81
2022/11/25 01:19:02;;;;;;;1.75;0.90;;;3.70;99.90;;;;;;5086443;28;20315;-82
2022/11/25 01:21:32;;;;;;;1.70;0.93;;;3.70;99.90;;;;;;5073736;28;20195;-81
2022/11/25 01:24:00;;;;;;;1.25;1.00;;;3.80;99.90;;;;;;5085559;28;20568;-81
2022/11/25 01:26:28;;;;;;;1.73;1.63;;;3.90;99.90;;;;;;5077361;28;20203;-81
2022/11/25 01:28:57;;;;;;;1.77;1.67;;;3.90;99.90;;;;;;5079161;28;20282;-80
2022/11/25 01:31:26;;;;;;;1.80;1.50;;;3.90;99.90;;;;;;5077901;28;20886;-81
2022/11/25 01:33:55;;;;;;;0.73;0.73;;;3.90;99.90;;;;;;5073015;28;20196;-82
2022/11/25 01:36:22;;;;;;;1.25;1.15;;;3.90;99.90;;;;;;5086232;28;20199;-81
2022/11/25 01:38:52;;;;;;;0.90;0.65;;;3.90;99.90;;;;;;5083260;28;20621;-81
2022/11/25 01:41:20;;;;;;;1.00;0.90;;;4.00;99.90;;;;;;5068667;28;20221;-81
2022/11/25 01:44:03;;;;;;;0.55;0.55;;;4.00;99.90;;;;;;5068190;28;20213;-81
2022/11/25 01:46:36;;;;;;;1.80;0.90;;;3.90;99.90;;;;;;5069508;28;20244;-81
2022/11/25 01:49:07;;;;;;;0.68;0.57;;;3.90;99.90;;;;;;5088151;28;20199;-82
2022/11/25 01:51:40;;;;;;;0.68;0.68;;;3.80;99.90;;;;;;5077026;28;20623;-81
2022/11/25 01:54:11;;;;;;;3.80;1.77;;;4.20;99.90;;;;;;5087173;28;20256;-81
2022/11/25 01:56:43;;;;;;;0.85;0.70;;;3.80;99.90;;;;;;5085682;28;20274;-82
2022/11/25 01:59:11;;;;;;;2.80;1.00;;;3.80;99.90;;;;;;5082275;28;20260;-82
2022/11/25 02:01:38;;;;;;;1.60;0.85;;;3.80;99.90;;;;;;5078902;28;20659;-81
2022/11/25 02:04:07;;;;;;;4.13;2.75;;;3.80;99.90;;;;;;5087680;28;20575;-81
2022/11/25 02:06:38;;;;;;;0.63;0.52;;;3.80;99.90;;;;;;5085574;28;20198;-82
2022/11/25 02:09:08;;;;;;;1.23;1.08;;;3.80;99.90;;;;;;5087706;28;20206;-81
2022/11/25 02:11:39;;;;;;;0.70;0.70;;;3.90;99.90;;;;;;5071372;28;20226;-81
2022/11/25 02:14:08;;;;;;;1.13;0.57;;;3.90;99.90;;;;;;5067757;28;20231;-81
2022/11/25 02:16:35;;;;;;;1.33;0.82;;;3.90;99.90;;;;;;5081252;28;20221;-81
2022/11/25 02:19:03;;;;;;;0.82;0.77;;;3.90;99.90;;;;;;5086419;28;20286;-81
2022/11/25 02:21:37;;;;;;;1.17;1.13;;;3.90;99.90;;;;;;5076113;28;20195;-81
2022/11/25 02:24:14;;;;;;;2.20;0.90;;;4.00;99.90;;;;;;5087568;28;20247;-81
2022/11/25 02:26:42;;;;;;;1.42;1.30;;;3.90;99.90;;;;;;5077444;28;20302;-82
2022/11/25 02:29:10;;;;;;;1.60;1.25;;;3.90;99.90;;;;;;5074180;28;20315;-81
2022/11/25 02:31:36;;;;;;;1.13;1.13;;;3.90;99.90;;;;;;5073849;28;20224;-82
2022/11/25 02:34:04;;;;;;;2.10;2.05;;;3.90;99.90;;;;;;5077119;28;20183;-82
2022/11/25 02:36:31;;;;;;;1.67;1.50;;;3.80;99.90;;;;;;5072996;28;20302;-81
2022/11/25 02:39:00;;;;;;;1.30;1.20;;;3.80;99.90;;;;;;5077500;28;20202;-81
2022/11/25 02:41:31;;;;;;;0.93;0.93;;;3.80;99.90;;;;;;5084616;28;20230;-81
2022/11/25 02:44:00;;;;;;;1.67;0.95;;;3.70;99.90;;;;;;5067701;28;20207;-82
2022/11/25 02:46:28;;;;;;;0.70;0.70;;;3.70;99.90;;;;;;5070286;28;20279;-81
2022/11/25 02:48:57;;;;;;;1.85;1.65;;;3.70;99.90;;;;;;5068653;28;20230;-81
2022/11/25 02:51:26;;;;;;;0.98;0.90;;;3.60;99.90;;;;;;5084027;28;20628;-81
2022/11/25 02:53:55;;;;;;;2.58;2.38;;;3.60;99.90;;;;;;5086493;28;20746;-82
2022/11/25 02:56:25;;;;;;;1.40;1.30;;;3.70;99.90;;;;;;5085052;28;20222;-81
2022/11/25 02:58:52;;;;;;;1.63;1.52;;;3.40;99.90;;;;;;5070427;28;20563;-81
2022/11/25 03:01:20;;;;;;;0.90;0.90;;;3.50;99.90;;;;;;5076059;28;20183;-81
2022/11/25 03:03:48;;;;;;;6.82;2.55;;;3.40;99.90;;;;;;5067005;28;20299;-81
2022/11/25 03:06:15;;;;;;;2.10;1.95;;;3.30;99.90;;;;;;5068243;28;20195;-81
2022/11/25 03:08:42;;;;;;;1.20;0.98;;;3.50;99.90;;;;;;5066867;28;20223;-81
2022/11/25 03:11:08;;;;;;;1.60;1.50;;;3.30;99.90;;;;;;5071052;28;20199;-81
2022/11/25 03:13:35;;;;;;;1.05;0.80;;;3.30;99.90;;;;;;5083728;28;20267;-83
2022/11/25 03:16:03;;;;;;;1.33;1.15;;;3.40;99.90;;;;;;5079057;28;20203;-81
2022/11/25 03:18:31;;;;;;;1.73;1.40;;;3.40;99.90;;;;;;5088928;28;20240;-81
2022/11/25 03:20:58;;;;;;;0.98;0.93;;;3.20;99.90;;;;;;5081545;28;20195;-81
2022/11/25 03:23:26;;;;;;;0.93;0.90;;;3.20;99.90;;;;;;5073478;28;20195;-82
2022/11/25 03:25:53;;;;;;;2.13;1.95;;;3.30;99.90;;;;;;5090186;28;20284;-80
2022/11/25 03:28:20;;;;;;;0.70;0.60;;;3.30;99.90;;;;;;5078839;28;20205;-81
2022/11/25 03:30:47;;;;;;;9.20;1.20;;;3.20;99.90;;;;;;5071548;28;20215;-81
2022/11/25 03:33:14;;;;;;;0.75;0.75;;;3.40;99.90;;;;;;5070524;28;20237;-81
2022/11/25 03:35:43;;;;;;;2.70;2.50;;;3.40;99.90;;;;;;5085369;28;20191;-81
2022/11/25 03:38:10;;;;;;;0.90;0.90;;;3.40;99.90;;;;;;5071483;28;20567;-81
2022/11/25 03:40:37;;;;;;;1.98;1.42;;;3.40;99.90;;;;;;5078077;28;20230;-81
2022/11/25 03:43:04;;;;;;;1.40;1.30;;;3.50;99.90;;;;;;5090148;28;20191;-81
2022/11/25 03:45:31;;;;;;;2.35;1.42;;;3.50;99.90;;;;;;5079392;28;20245;-81
2022/11/25 03:47:58;;;;;;;2.15;1.95;;;3.40;99.90;;;;;;5082478;28;20284;-81
2022/11/25 03:50:25;;;;;;;2.38;1.60;;;3.40;99.90;;;;;;5086916;28;20195;-81
2022/11/25 03:52:53;;;;;;;0.90;0.90;;;3.40;99.90;;;;;;5087749;28;20551;-81
2022/11/25 03:55:20;;;;;;;0.68;0.50;;;3.50;99.90;;;;;;5089373;28;20187;-82
2022/11/25 03:57:47;;;;;;;1.60;1.20;;;3.50;99.90;;;;;;5088692;28;20574;-81
2022/11/25 04:00:15;;;;;;;1.48;1.38;;;3.40;99.90;;;;;;5075842;28;20646;-81
2022/11/25 04:02:42;;;;;;;1.60;1.50;;;3.40;99.90;;;;;;5083538;28;20198;-81
2022/11/25 04:05:09;;;;;;;1.95;1.75;;;3.40;99.90;;;;;;5072858;28;20198;-82
2022/11/25 04:07:36;;;;;;;1.08;1.00;;;3.40;99.90;;;;;;5080356;28;20206;-84
2022/11/25 04:10:06;;;;;;;1.70;1.25;;;3.40;99.90;;;;;;5071059;28;20591;-80
2022/11/25 04:12:47;;;;;;;1.05;0.60;;;3.40;99.90;;;;;;5089554;28;20643;-81
2022/11/25 04:15:15;;;;;;;1.35;1.25;;;3.40;99.90;;;;;;5087301;28;20207;-81
2022/11/25 04:17:42;;;;;;;1.45;1.42;;;3.30;99.90;;;;;;5072309;28;20230;-81
2022/11/25 04:20:11;;;;;;;3.05;1.15;;;3.20;99.90;;;;;;5070240;28;20227;-81
2022/11/25 04:22:38;;;;;;;3.58;3.28;;;3.30;99.90;;;;;;5081481;28;20642;-82
2022/11/25 04:25:08;;;;;;;1.95;1.85;;;3.20;99.90;;;;;;5074957;28;20673;-81
2022/11/25 04:27:34;;;;;;;2.25;1.00;;;3.20;99.90;;;;;;5073857;28;20200;-81
2022/11/25 04:30:01;;;;;;;0.95;0.95;;;3.20;99.90;;;;;;5069412;28;20199;-83
2022/11/25 04:32:28;;;;;;;0.70;0.70;;;3.20;99.90;;;;;;5089222;28;20301;-82
2022/11/25 04:34:55;;;;;;;2.50;1.20;;;3.20;99.90;;;;;;5075658;28;20287;-82
2022/11/25 04:37:22;;;;;;;2.47;1.20;;;3.20;99.90;;;;;;5083736;28;20213;-81
2022/11/25 04:39:49;;;;;;;1.17;0.85;;;3.20;99.90;;;;;;5069346;28;20213;-82
2022/11/25 04:42:32;;;;;;;1.48;1.38;;;3.10;99.90;;;;;;5078060;28;20203;-82
2022/11/25 04:44:59;;;;;;;0.90;0.90;;;3.20;99.90;;;;;;5078070;28;20222;-81
2022/11/25 04:47:26;;;;;;;2.00;1.77;;;3.10;99.90;;;;;;5087915;28;20195;-82
2022/11/25 04:49:52;;;;;;;3.00;2.60;;;3.20;99.90;;;;;;5069102;28;20195;-82
2022/11/25 04:52:19;;;;;;;1.45;1.40;;;3.20;99.90;;;;;;5079073;28;20337;-81
2022/11/25 04:54:46;;;;;;;3.00;0.90;;;3.20;99.90;;;;;;5068642;28;20295;-81
2022/11/25 04:57:14;;;;;;;1.10;1.05;;;3.20;99.90;;;;;;5086163;28;20233;-82
2022/11/25 04:59:43;;;;;;;1.38;1.27;;;3.20;99.90;;;;;;5080678;28;20195;-81
2022/11/25 05:02:14;;;;;;;1.38;1.30;;;3.20;99.90;;;;;;5074066;28;20204;-81
2022/11/25 05:04:41;;;;;;;2.22;1.50;;;3.90;99.90;;;;;;5069215;28;20211;-82
2022/11/25 05:07:09;;;;;;;1.67;1.58;;;3.00;99.90;;;;;;5073540;28;20195;-82
2022/11/25 05:09:36;;;;;;;1.55;1.45;;;3.00;99.90;;;;;;5068695;28;20658;-81
2022/11/25 05:12:03;;;;;;;2.72;2.53;;;3.00;99.90;;;;;;5069764;28;20282;-82
2022/11/25 05:14:30;;;;;;;3.28;1.88;;;3.20;99.90;;;;;;5068324;28;20286;-81
2022/11/25 05:16:58;;;;;;;3.13;1.73;;;2.90;99.90;;;;;;5084300;28;20201;-81
2022/11/25 05:19:24;;;;;;;1.30;1.20;;;2.90;99.90;;;;;;5068743;28;20207;-81
2022/11/25 05:21:51;;;;;;;3.05;2.58;;;2.90;99.90;;;;;;5077137;28;20191;-81
2022/11/25 05:24:18;;;;;;;1.20;1.20;;;2.80;99.90;;;;;;5068500;28;20211;-80
2022/11/25 05:26:45;;;;;;;2.25;2.05;;;3.00;99.90;;;;;;5081531;28;20195;-81
2022/11/25 05:29:12;;;;;;;0.85;0.85;;;3.00;99.90;;;;;;5077004;28;20252;-81
2022/11/25 05:31:39;;;;;;;3.17;1.80;;;3.00;99.90;;;;;;5077945;28;20194;-82
2022/11/25 05:34:07;;;;;;;1.77;1.67;;;3.00;99.90;;;;;;5084506;28;20274;-82
2022/11/25 05:36:34;;;;;;;1.75;1.65;;;2.90;99.90;;;;;;5076652;28;20199;-81
2022/11/25 05:39:01;;;;;;;1.23;1.20;;;3.10;99.90;;;;;;5077777;28;20279;-81
2022/11/25 05:41:28;;;;;;;1.40;1.27;;;2.90;99.90;;;;;;5072542;28;20287;-81
2022/11/25 05:43:55;;;;;;;1.40;1.30;;;2.80;99.90;;;;;;5067645;28;20199;-80
2022/11/25 05:46:22;;;;;;;4.13;1.38;;;2.90;99.90;;;;;;5080311;28;20277;-82
2022/11/25 05:48:53;;;;;;;1.85;1.75;;;2.80;99.90;;;;;;5076709;28;20187;-81
2022/11/25 05:51:21;;;;;;;6.18;1.95;;;2.80;99.90;;;;;;5084208;28;20657;-83
2022/11/25 05:53:48;;;;;;;1.35;1.25;;;2.60;99.90;;;;;;5086832;28;20297;-83
2022/11/25 05:56:15;;;;;;;1.65;1.55;;;2.60;99.90;;;;;;5086943;28;20230;-83
2022/11/25 05:58:42;;;;;;;1.50;1.02;;;2.60;99.90;;;;;;5077962;28;20278;-85
2022/11/25 06:01:10;;;;;;;1.58;1.48;;;2.60;99.90;;;;;;5082201;28;20202;-83
2022/11/25 06:03:37;;;;;;;1.40;1.30;;;2.50;99.90;;;;;;5086842;28;20281;-83
2022/11/25 06:06:05;;;;;;;5.35;2.45;;;2.50;99.90;;;;;;5082259;28;20211;-83
2022/11/25 06:08:33;;;;;;;1.48;1.30;;;2.40;99.90;;;;;;5086846;28;20741;-83
2022/11/25 06:11:03;;;;;;;1.58;1.48;;;2.50;99.90;;;;;;5077389;28;20274;-83
2022/11/25 06:13:30;;;;;;;1.67;1.58;;;2.50;99.90;;;;;;5078375;28;20222;-83
2022/11/25 06:15:57;;;;;;;2.15;1.42;;;2.40;99.90;;;;;;5078572;28;20649;-83
2022/11/25 06:18:24;;;;;;;0.88;0.82;;;2.30;99.90;;;;;;5078294;28;20201;-83
2022/11/25 06:20:56;;;;;;;1.35;1.10;;;2.40;99.90;;;;;;5077333;28;20305;-83
2022/11/25 06:23:24;;;;;;;1.85;1.70;;;2.40;99.90;;;;;;5077483;28;20560;-83
2022/11/25 06:25:52;;;;;;;1.42;1.33;;;2.50;99.90;;;;;;5075273;28;20275;-84
2022/11/25 06:28:19;;;;;;;1.13;1.13;;;2.50;99.90;;;;;;5085805;28;20226;-83
2022/11/25 06:30:46;;;;;;;1.67;1.38;;;2.50;99.90;;;;;;5072647;28;20191;-84
2022/11/25 06:33:13;;;;;;;1.90;1.80;;;2.60;99.90;;;;;;5082455;28;20237;-83
2022/11/25 06:35:40;;;;;;;7.60;4.20;;;2.60;99.90;;;;;;5075834;28;20194;-83
2022/11/25 06:38:07;;;;;;;5.13;3.63;;;2.60;99.90;;;;;;5075786;28;20243;-83
2022/11/25 06:40:34;;;;;;;6.50;3.45;;;3.10;99.90;;;;;;5078137;28;20227;-83
2022/11/25 06:43:04;;;;;;;3.13;2.88;;;2.60;99.90;;;;;;5079222;28;20401;-84
2022/11/25 06:45:32;;;;;;;7.35;2.80;;;2.60;99.90;;;;;;5070672;28;20222;-84
2022/11/25 06:47:58;;;;;;;3.53;2.55;;;2.60;99.90;;;;;;5080527;28;20229;-84
2022/11/25 06:50:25;;;;;;;4.03;2.67;;;2.60;99.90;;;;;;5082122;28;21359;-83
2022/11/25 06:52:52;;;;;;;1.58;1.48;;;2.60;99.90;;;;;;5088194;28;20226;-84
2022/11/25 06:55:19;;;;;;;6.93;1.65;;;2.70;99.90;;;;;;5085405;28;20200;-83
2022/11/25 06:57:46;;;;;;;3.33;1.77;;;2.80;99.90;;;;;;5089357;28;20302;-83
2022/11/25 07:00:15;;;;;;;2.85;1.52;;;2.70;99.90;;;;;;5078617;28;20550;-84
2022/11/25 07:02:42;;;;;;;0.90;0.90;;;2.60;99.90;;;;;;5079346;28;20252;-83
2022/11/25 07:05:09;;;;;;;1.17;0.98;;;2.80;99.90;;;;;;5079032;28;20253;-83
2022/11/25 07:07:39;;;;;;;1.25;1.10;;;2.90;99.90;;;;;;5085002;28;20296;-83
2022/11/25 07:10:08;;;;;;;2.03;1.92;;;3.00;99.90;;;;;;5079619;28;20199;-85
2022/11/25 07:12:35;;;;;;;1.85;1.75;;;3.00;99.90;;;;;;5084396;28;20281;-84
2022/11/25 07:15:02;;;;;;;1.65;1.55;;;3.20;99.90;;;;;;5079540;28;20323;-84
2022/11/25 07:17:30;;;;;;;1.48;1.35;;;3.20;99.90;;;;;;5081919;28;20195;-84
2022/11/25 07:19:57;;;;;;;1.48;1.40;;;3.80;99.90;;;;;;5080745;28;20199;-83
2022/11/25 07:22:24;;;;;;;1.45;1.35;;;3.20;99.90;;;;;;5083970;28;20191;-84
2022/11/25 07:24:51;;;;;;;1.85;1.73;;;3.20;99.90;;;;;;5081320;28;20747;-84
2022/11/25 07:27:17;;;;;;;1.35;1.25;;;3.50;99.90;;;;;;5076167;28;20187;-84
2022/11/25 07:29:44;;;;;;;0.80;0.77;;;3.80;99.90;;;;;;5077589;28;20211;-84
2022/11/25 07:32:11;;;;;;;1.35;1.35;;;4.50;99.90;;;;;;5087276;28;20243;-84
2022/11/25 07:34:40;;;;;;;2.40;1.85;;;3.70;99.90;;;;;;5081854;28;20647;-84
2022/11/25 07:37:07;;;;;;;1.77;1.67;;;3.80;99.90;;;;;;5084178;28;20205;-85
2022/11/25 07:39:34;;;;;;;1.48;1.25;;;3.70;99.90;;;;;;5088637;28;20203;-85
2022/11/25 07:42:00;;;;;;;3.25;1.90;;;3.80;99.90;;;;;;5081044;28;20339;-85
2022/11/25 07:44:27;;;;;;;4.35;1.80;;;3.90;99.90;;;;;;5080193;28;20205;-85
2022/11/25 07:46:54;;;;;;;1.00;1.00;;;3.90;99.90;;;;;;5075064;28;20267;-84
2022/11/25 07:49:24;;;;;;;1.65;1.55;;;3.90;99.90;;;;;;5077021;28;20745;-84
2022/11/25 07:51:54;;;;;;;1.42;1.30;;;4.00;99.90;;;;;;5083059;28;20206;-84
2022/11/25 07:54:22;;;;;;;0.90;0.90;;;4.00;99.90;;;;;;5090112;28;20223;-84
2022/11/25 07:56:49;;;;;;;1.50;0.65;;;4.10;99.90;;;;;;5075697;28;20278;-84
2022/11/25 07:59:18;;;;;;;0.73;0.73;;;4.20;99.90;;;;;;5088088;28;20277;-84
2022/11/25 08:01:52;;;;;;;1.10;1.02;;;4.30;99.90;;;;;;5083483;28;20923;-86
2022/11/25 08:04:20;;;;;;;1.02;1.02;;;4.40;99.90;;;;;;5084584;28;20217;-84
2022/11/25 08:06:49;;;;;;;1.40;1.23;;;4.40;99.90;;;;;;5078812;28;20295;-84
2022/11/25 08:09:19;;;;;;;3.42;1.23;;;4.30;99.90;;;;;;5070041;28;20280;-84
2022/11/25 08:11:48;;;;;;;4.10;1.77;;;4.40;99.90;;;;;;5081024;28;20236;-83
2022/11/25 08:14:15;;;;;;;0.90;0.88;;;4.50;99.90;;;;;;5077438;28;20255;-84
2022/11/25 08:16:42;;;;;;;3.03;1.08;;;4.50;99.90;;;;;;5074543;28;20222;-82
2022/11/25 08:19:12;;;;;;;0.77;0.65;;;4.60;99.90;;;;;;5075522;28;20234;-85
2022/11/25 08:21:39;;;;;;;0.90;0.90;;;4.60;99.90;;;;;;5071994;28;20207;-84
2022/11/25 08:24:15;;;;;;;0.73;0.73;;;4.70;99.90;;;;;;5076988;28;20299;-85
2022/11/25 08:26:43;;;;;;;1.23;1.05;;;4.70;99.90;;;;;;5073555;28;20286;-84
2022/11/25 08:29:16;;;;;;;7.65;3.47;;;4.70;99.90;;;;;;5074545;28;20278;-84
2022/11/25 08:31:46;;;;;;;3.10;2.80;;;4.80;99.90;;;;;;5076816;28;20203;-84
2022/11/25 08:34:18;;;;;;;5.05;1.98;;;4.80;99.90;;;;;;5076376;28;20238;-84
2022/11/25 08:36:45;;;;;;;3.35;1.60;;;5.00;99.90;;;;;;5075554;28;20212;-84
2022/11/25 08:39:12;;;;;;;1.20;1.10;;;5.10;99.90;;;;;;5086296;28;20226;-84
2022/11/25 08:41:39;;;;;;;1.38;1.27;;;5.30;99.90;;;;;;5075955;28;20279;-84
2022/11/25 08:44:08;;;;;;;0.63;0.63;;;5.50;99.90;;;;;;5081172;28;20274;-84
2022/11/25 08:46:38;;;;;;;1.58;1.15;;;5.50;99.90;;;;;;5088067;28;20207;-83
2022/11/25 08:49:07;;;;;;;3.33;1.02;;;5.50;99.90;;;;;;5068520;28;20199;-84
2022/11/25 08:51:36;;;;;;;1.02;0.85;;;5.80;99.90;;;;;;5077094;28;20202;-84
2022/11/25 08:54:04;;;;;;;0.88;0.75;;;5.50;99.90;;;;;;5088004;28;20304;-84
2022/11/25 08:56:31;;;;;;;1.20;1.10;;;5.50;99.90;;;;;;5087146;28;20190;-84
2022/11/25 08:58:58;;;;;;;1.80;1.23;;;5.70;99.90;;;;;;5077867;28;20191;-84
2022/11/25 09:01:27;;;;;;;1.10;1.00;;;5.70;99.90;;;;;;5073070;28;20268;-84
2022/11/25 09:03:56;;;;;;;1.23;1.13;;;6.20;99.90;;;;;;5068100;28;20202;-85
2022/11/25 09:06:24;;;;;;;0.55;0.55;;;5.80;99.90;;;;;;5080604;28;20298;-84
2022/11/25 09:08:54;;;;;;;0.55;0.55;;;6.00;99.90;;;;;;5073989;28;20710;-85
2022/11/25 09:11:21;;;;;;;2.55;1.40;;;5.90;99.90;;;;;;5080636;28;20620;-83
2022/11/25 09:13:47;;;;;;;1.77;1.42;;;6.10;99.90;;;;;;5068592;28;20219;-85
2022/11/25 09:16:14;;;;;;;1.13;1.02;;;6.20;99.90;;;;;;5083870;28;20202;-84
2022/11/25 09:18:44;;;;;;;1.20;0.98;;;6.20;99.90;;;;;;5087417;28;20854;-84
2022/11/25 09:21:13;;;;;;;1.40;0.90;;;6.30;99.90;;;;;;5085459;28;20221;-84
2022/11/25 09:23:40;;;;;;;1.92;1.83;;;6.40;99.90;;;;;;5068200;28;20213;-83
2022/11/25 09:26:08;;;;;;;1.13;1.13;;;6.50;99.90;;;;;;5068937;28;20294;-84
2022/11/25 09:28:35;;;;;;;2.95;1.55;;;6.60;99.90;;;;;;5070180;28;20204;-83
2022/11/25 09:31:07;;;;;;;1.02;1.02;;;6.80;99.90;;;;;;5080333;28;20195;-83
2022/11/25 09:33:34;;;;;;;1.27;0.95;;;6.70;99.90;;;;;;5084968;28;20221;-82
2022/11/25 09:36:03;;;;;;;1.58;0.75;;;6.80;99.90;;;;;;5071516;28;20199;-85
2022/11/25 09:38:29;;;;;;;1.30;1.20;;;6.80;99.90;;;;;;5077739;28;20244;-83
2022/11/25 09:41:01;;;;;;;3.53;1.73;;;6.80;99.90;;;;;;5067806;28;20712;-83
2022/11/25 09:46:41;;;;;;;2.00;0.90;;;6.90;99.90;;;;;;5071425;28;20207;-83
2022/11/25 09:49:29;;;;;;;0.70;0.70;;;6.90;99.90;;;;;;5081521;28;20623;-83
2022/11/25 09:52:09;;;;;;;2.33;2.10;;;6.90;99.90;;;;;;5081910;28;20661;-83
2022/11/25 09:54:38;;;;;;;2.40;1.83;;;7.00;99.90;;;;;;5067817;28;20787;-83
2022/11/25 09:57:23;;;;;;;1.27;1.10;;;7.10;99.90;;;;;;5070720;28;21003;-83
2022/11/25 10:00:01;;;;;;;2.63;1.92;;;7.10;99.90;;;;;;5076989;28;20684;-83
2022/11/25 10:02:34;;;;;;;0.83;0.83;;;7.60;99.90;;;;;;5067596;28;20199;-83
2022/11/25 10:05:07;;;;;;;0.70;0.70;;;7.20;99.90;;;;;;5067695;28;21224;-83
2022/11/25 10:07:39;;;;;;;1.90;1.80;;;7.30;99.90;;;;;;5078212;28;20724;-83
2022/11/25 10:10:14;;;;;;;2.63;1.30;;;7.20;99.90;;;;;;5080003;28;20195;-83
2022/11/25 10:12:44;;;;;;;1.23;1.13;;;7.30;99.90;;;;;;5072226;28;21203;-83
2022/11/25 10:15:17;;;;;;;1.53;1.37;;;7.30;99.90;;;;;;5067232;28;20759;-84
2022/11/25 10:17:49;;;;;;;2.93;1.70;;;7.40;99.90;;;;;;5080323;28;20651;-83
2022/11/25 10:20:21;;;;;;;0.93;0.90;;;7.50;99.90;;;;;;5080624;28;21198;-83
2022/11/25 10:22:52;;;;;;;1.10;0.67;;;7.60;99.90;;;;;;5081243;28;20631;-83
2022/11/25 10:25:21;;;;;;;2.40;1.30;;;7.90;99.90;;;;;;5078394;28;20716;-83
2022/11/25 10:27:55;;;;;;;1.07;1.07;;;7.90;99.90;;;;;;5090628;28;20665;-82
2022/11/25 10:30:24;;;;;;;1.70;1.33;;;8.00;99.90;;;;;;5081455;28;20617;-82
2022/11/25 10:32:54;;;;;;;1.10;1.00;;;8.20;99.90;;;;;;5078095;28;20620;-83
2022/11/25 10:35:31;;;;;;;1.00;0.93;;;8.20;99.90;;;;;;5079220;28;20648;-83
2022/11/25 10:38:02;;;;;;;0.63;0.63;;;8.30;99.90;;;;;;5079682;28;21089;-83
2022/11/25 10:40:28;;;;;;;0.90;0.73;;;8.40;99.90;;;;;;5079044;28;21063;-83
2022/11/25 10:42:55;;;;;;;0.90;0.80;;;8.80;99.90;;;;;;5076272;28;21255;-83
2022/11/25 10:45:30;;;;;;;2.30;1.20;;;8.80;99.90;;;;;;5082360;28;20711;-83
2022/11/25 10:48:24;;;;;;;0.73;0.73;;;8.90;99.90;;;;;;5071560;28;20744;-83
2022/11/25 10:51:06;;;;;;;0.53;0.50;;;9.00;99.90;;;;;;5085019;28;20639;-83
2022/11/25 10:53:34;;;;;;;1.40;1.03;;;9.00;99.90;;;;;;5079698;28;20717;-83
2022/11/25 10:56:03;;;;;;;2.63;0.97;;;9.00;99.90;;;;;;5084489;28;20620;-83
2022/11/25 10:58:33;;;;;;;2.13;1.10;;;8.90;99.90;;;;;;5079951;28;20614;-83
2022/11/25 11:01:04;;;;;;;1.70;1.10;;;9.00;99.90;;;;;;5090674;28;20640;-83
2022/11/25 11:03:32;;;;;;;1.40;1.30;;;9.00;99.90;;;;;;5084156;28;20772;-82
2022/11/25 11:05:59;;;;;;;0.70;0.50;;;9.00;99.90;;;;;;5083504;28;20649;-82
2022/11/25 11:08:31;;;;;;;0.63;0.57;;;9.00;99.90;;;;;;5078207;28;21236;-83
2022/11/25 11:11:22;;;;;;;1.40;0.70;;;9.00;99.90;;;;;;5080082;28;21281;-83
2022/11/25 11:13:50;;;;;;;4.60;1.73;;;9.10;99.90;;;;;;5080632;28;20724;-83
2022/11/25 11:16:31;;;;;;;0.60;0.60;;;8.90;99.90;;;;;;5084691;28;20635;-82
2022/11/25 11:18:58;;;;;;;1.37;1.27;;;9.00;99.90;;;;;;5083552;28;20693;-84
2022/11/25 11:21:30;;;;;;;0.80;0.70;;;9.00;99.90;;;;;;5076821;28;20618;-83
2022/11/25 11:23:58;;;;;;;1.53;0.60;;;8.90;99.90;;;;;;5080510;28;20731;-83
2022/11/25 11:26:29;;;;;;;0.50;0.50;;;8.90;99.90;;;;;;5068738;28;20681;-83
2022/11/25 11:29:02;;;;;;;2.93;1.23;;;8.90;99.90;;;;;;5082805;28;21069;-83
2022/11/25 11:31:37;;;;;;;1.23;1.13;;;8.80;99.90;;;;;;5085827;28;20625;-83
2022/11/25 11:34:23;;;;;;;1.30;1.17;;;8.90;99.90;;;;;;5078899;28;20707;-83
2022/11/25 11:37:05;;;;;;;1.17;0.67;;;8.90;99.90;;;;;;5090896;28;20728;-83
2022/11/25 11:40:01;;;;;;;1.40;1.10;;;8.90;99.90;;;;;;5089775;28;20631;-83
2022/11/25 11:42:38;;;;;;;2.17;0.90;;;8.80;99.90;;;;;;5076880;28;20625;-83
2022/11/25 11:45:23;;;;;;;0.57;0.57;;;8.80;99.90;;;;;;5080837;28;21197;-83
2022/11/25 11:48:04;;;;;;;0.93;0.90;;;8.80;99.90;;;;;;5069699;28;20732;-83
2022/11/25 11:50:35;;;;;;;0.60;0.60;;;8.70;99.90;;;;;;5079447;28;20707;-83
2022/11/25 11:53:10;;;;;;;0.67;0.67;;;8.70;99.90;;;;;;5087674;28;20727;-83
2022/11/25 11:55:51;;;;;;;1.80;1.07;;;8.70;99.90;;;;;;5070696;28;20665;-83
2022/11/25 11:58:34;;;;;;;0.60;0.40;;;8.60;99.90;;;;;;5084472;28;21207;-83
2022/11/25 12:01:08;;;;;;;0.60;0.60;;;8.50;99.90;;;;;;5084318;28;21498;-83
2022/11/25 12:03:40;;;;;;;1.10;0.97;;;8.50;99.90;;;;;;5078666;28;20719;-82
2022/11/25 12:06:10;;;;;;;2.07;0.73;;;8.50;99.90;;;;;;5084525;28;20651;-83
2022/11/25 12:08:44;;;;;;;0.87;0.87;;;8.50;99.90;;;;;;5081326;28;20628;-83
2022/11/25 12:11:17;;;;;;;2.77;0.93;;;8.40;99.90;;;;;;5077655;28;21052;-83
2022/11/25 12:13:56;;;;;;;1.77;1.17;;;8.30;99.90;;;;;;5081633;28;21433;-83
2022/11/25 12:16:40;;;;;;;0.93;0.90;;;8.40;99.90;;;;;;5081375;28;20686;-84
2022/11/25 12:19:15;;;;;;;0.80;0.77;;;8.20;99.90;;;;;;5076348;28;20999;-83
2022/11/25 12:21:50;;;;;;;3.33;1.43;;;8.30;99.90;;;;;;5084863;28;20639;-85
2022/11/25 12:24:23;;;;;;;1.40;1.30;;;8.30;99.90;;;;;;5080663;28;20631;-84
2022/11/25 12:26:59;;;;;;;1.03;0.83;;;8.30;99.90;;;;;;5073918;28;20660;-82
2022/11/25 12:29:36;;;;;;;1.33;0.90;;;8.30;99.90;;;;;;5083463;28;20646;-82
2022/11/25 12:32:26;;;;;;;1.23;1.13;;;8.60;99.90;;;;;;5086836;28;20636;-83
2022/11/25 12:35:01;;;;;;;1.00;0.83;;;8.50;99.90;;;;;;5084903;28;20644;-84
2022/11/25 12:37:35;;;;;;;1.23;1.13;;;8.50;99.90;;;;;;5080283;28;20609;-84
2022/11/25 12:40:15;;;;;;;1.00;0.90;;;8.50;99.90;;;;;;5082354;28;20667;-83
2022/11/25 12:42:45;;;;;;;0.70;0.70;;;8.50;99.90;;;;;;5073055;28;21190;-84
2022/11/25 12:45:21;;;;;;;0.97;0.97;;;8.50;99.90;;;;;;5085366;28;20643;-85
2022/11/25 12:47:51;;;;;;;2.80;2.10;;;8.50;99.90;;;;;;5068746;28;20625;-83
2022/11/25 12:50:25;;;;;;;2.37;1.80;;;8.50;99.90;;;;;;5071906;28;20626;-83
2022/11/25 12:53:04;;;;;;;1.10;1.07;;;8.30;99.90;;;;;;5078129;28;20748;-82
2022/11/25 12:55:32;;;;;;;1.23;1.13;;;8.60;99.90;;;;;;5071216;28;20714;-83
2022/11/25 12:58:29;;;;;;;0.80;0.60;;;8.50;99.90;;;;;;5084372;28;21028;-83
2022/11/25 13:01:24;;;;;;;1.00;1.00;;;8.50;99.90;;;;;;5072234;28;20664;-83
2022/11/25 13:04:29;;;;;;;2.03;1.83;;;8.40;99.90;;;;;;5072976;28;20629;-82
2022/11/25 13:07:28;;;;;;;1.83;0.97;;;8.40;99.90;;;;;;5071699;28;20660;-82
2022/11/25 13:10:33;;;;;;;1.40;1.30;;;8.30;99.90;;;;;;5088862;28;20728;-83
2022/11/25 13:13:21;;;;;;;1.07;1.07;;;8.30;99.90;;;;;;5072522;28;20716;-82
2022/11/25 13:15:51;;;;;;;3.63;1.40;;;8.30;99.90;;;;;;5071851;28;20750;-82
2022/11/25 13:18:22;;;;;;;2.00;1.37;;;8.20;99.90;;;;;;5085984;28;20613;-82